sensor_id;sensor_type;location;lat;lon;timestamp;temperature;humidity
27384;DHT22;14851;51.166;4.760;2023-12-22T00:00:50;9.70;99.90
27384;DHT22;14851;51.166;4.760;2023-12-22T00:03:16;9.70;99.90
27384;DHT22;14851;51.166;4.760;2023-12-22T00:05:42;9.80;99.90
27384;DHT22;14851;51.166;4.760;2023-12-22T00:08:08;9.90;99.90
27384;DHT22;14851;51.166;4.760;2023-12-22T00:10:34;9.90;99.90
27384;DHT22;14851;51.166;4.760;2023-12-22T00:13:00;9.90;99.90
27384;DHT22;14851;51.166;4.760;2023-12-22T00:15:26;9.90;99.90
27384;DHT22;14851;51.166;4.760;2023-12-22T00:17:52;9.90;99.90
27384;DHT22;14851;51.166;4.760;2023-12-22T00:20:18;9.90;99.90
27384;DHT22;14851;51.166;4.760;2023-12-22T00:22:47;9.90;99.90
27384;DHT22;14851;51.166;4.760;2023-12-22T00:25:15;9.90;99.90
27384;DHT22;14851;51.166;4.760;2023-12-22T00:27:41;9.90;99.90
27384;DHT22;14851;51.166;4.760;2023-12-22T00:30:10;9.80;99.90
27384;DHT22;14851;51.166;4.760;2023-12-22T00:32:36;9.80;99.90
27384;DHT22;14851;51.166;4.760;2023-12-22T00:35:05;9.70;99.90
27384;DHT22;14851;51.166;4.760;2023-12-22T00:37:31;9.70;99.90
27384;DHT22;14851;51.166;4.760;2023-12-22T00:39:58;9.70;99.90
27384;DHT22;14851;51.166;4.760;2023-12-22T00:42:24;9.70;99.90
27384;DHT22;14851;51.166;4.760;2023-12-22T00:44:51;9.70;99.90
27384;DHT22;14851;51.166;4.760;2023-12-22T00:47:17;9.70;99.90
27384;DHT22;14851;51.166;4.760;2023-12-22T00:49:44;9.70;99.90
27384;DHT22;14851;51.166;4.760;2023-12-22T00:52:10;9.70;99.90
27384;DHT22;14851;51.166;4.760;2023-12-22T00:54:36;9.70;99.90
27384;DHT22;14851;51.166;4.760;2023-12-22T00:57:05;9.70;99.90
27384;DHT22;14851;51.166;4.760;2023-12-22T00:59:33;9.70;99.90
27384;DHT22;14851;51.166;4.760;2023-12-22T01:02:02;9.70;99.90
27384;DHT22;14851;51.166;4.760;2023-12-22T01:04:28;9.70;99.90
27384;DHT22;14851;51.166;4.760;2023-12-22T01:06:56;9.70;99.90
27384;DHT22;14851;51.166;4.760;2023-12-22T01:09:22;9.70;99.90
27384;DHT22;14851;51.166;4.760;2023-12-22T01:11:48;9.70;99.90
27384;DHT22;14851;51.166;4.760;2023-12-22T01:14:14;9.70;99.90
27384;DHT22;14851;51.166;4.760;2023-12-22T01:16:40;9.70;99.90
27384;DHT22;14851;51.166;4.760;2023-12-22T01:19:06;9.70;99.90
27384;DHT22;14851;51.166;4.760;2023-12-22T01:21:32;9.70;99.90
27384;DHT22;14851;51.166;4.760;2023-12-22T01:23:58;9.70;99.90
27384;DHT22;14851;51.166;4.760;2023-12-22T01:26:28;9.70;99.90
27384;DHT22;14851;51.166;4.760;2023-12-22T01:28:57;9.70;99.90
27384;DHT22;14851;51.166;4.760;2023-12-22T01:31:23;9.70;99.90
27384;DHT22;14851;51.166;4.760;2023-12-22T01:33:50;9.70;99.90
27384;DHT22;14851;51.166;4.760;2023-12-22T01:36:15;9.70;99.90
27384;DHT22;14851;51.166;4.760;2023-12-22T01:38:42;9.60;99.90
27384;DHT22;14851;51.166;4.760;2023-12-22T01:41:08;9.60;99.90
27384;DHT22;14851;51.166;4.760;2023-12-22T01:43:34;9.60;99.90
27384;DHT22;14851;51.166;4.760;2023-12-22T01:46:00;9.70;99.90
27384;DHT22;14851;51.166;4.760;2023-12-22T01:48:28;9.70;99.90
27384;DHT22;14851;51.166;4.760;2023-12-22T01:50:55;9.70;99.90
27384;DHT22;14851;51.166;4.760;2023-12-22T01:53:27;9.70;99.90
27384;DHT22;14851;51.166;4.760;2023-12-22T01:55:55;9.70;99.90
27384;DHT22;14851;51.166;4.760;2023-12-22T01:58:24;9.70;99.90
27384;DHT22;14851;51.166;4.760;2023-12-22T02:00:54;9.70;99.90
27384;DHT22;14851;51.166;4.760;2023-12-22T02:03:21;9.70;99.90
27384;DHT22;14851;51.166;4.760;2023-12-22T02:05:47;9.70;99.90
27384;DHT22;14851;51.166;4.760;2023-12-22T02:08:16;9.70;99.90
27384;DHT22;14851;51.166;4.760;2023-12-22T02:10:43;9.60;99.90
27384;DHT22;14851;51.166;4.760;2023-12-22T02:13:11;9.70;99.90
27384;DHT22;14851;51.166;4.760;2023-12-22T02:15:43;9.60;99.90
27384;DHT22;14851;51.166;4.760;2023-12-22T02:18:10;9.60;99.90
27384;DHT22;14851;51.166;4.760;2023-12-22T02:20:38;9.60;99.90
27384;DHT22;14851;51.166;4.760;2023-12-22T02:23:05;9.60;99.90
27384;DHT22;14851;51.166;4.760;2023-12-22T02:25:31;9.70;99.90
27384;DHT22;14851;51.166;4.760;2023-12-22T02:28:15;9.70;99.90
27384;DHT22;14851;51.166;4.760;2023-12-22T02:30:53;9.60;99.90
27384;DHT22;14851;51.166;4.760;2023-12-22T02:33:23;9.60;99.90
27384;DHT22;14851;51.166;4.760;2023-12-22T02:35:53;9.60;99.90
27384;DHT22;14851;51.166;4.760;2023-12-22T02:38:20;9.60;99.90
27384;DHT22;14851;51.166;4.760;2023-12-22T02:40:47;9.60;99.90
27384;DHT22;14851;51.166;4.760;2023-12-22T02:43:14;9.60;99.90
27384;DHT22;14851;51.166;4.760;2023-12-22T02:45:40;9.60;99.90
27384;DHT22;14851;51.166;4.760;2023-12-22T02:48:06;9.60;99.90
27384;DHT22;14851;51.166;4.760;2023-12-22T02:50:33;9.60;99.90
27384;DHT22;14851;51.166;4.760;2023-12-22T02:52:59;9.60;99.90
27384;DHT22;14851;51.166;4.760;2023-12-22T02:55:25;9.60;99.90
27384;DHT22;14851;51.166;4.760;2023-12-22T02:57:51;9.60;99.90
27384;DHT22;14851;51.166;4.760;2023-12-22T03:00:17;9.60;99.90
27384;DHT22;14851;51.166;4.760;2023-12-22T03:02:43;9.60;99.90
27384;DHT22;14851;51.166;4.760;2023-12-22T03:05:09;9.60;99.90
27384;DHT22;14851;51.166;4.760;2023-12-22T03:07:35;9.60;99.90
27384;DHT22;14851;51.166;4.760;2023-12-22T03:10:02;9.50;99.90
27384;DHT22;14851;51.166;4.760;2023-12-22T03:12:28;9.50;99.90
27384;DHT22;14851;51.166;4.760;2023-12-22T03:14:54;9.50;99.90
27384;DHT22;14851;51.166;4.760;2023-12-22T03:17:20;9.50;99.90
27384;DHT22;14851;51.166;4.760;2023-12-22T03:19:47;9.50;99.90
27384;DHT22;14851;51.166;4.760;2023-12-22T03:22:13;9.50;99.90
27384;DHT22;14851;51.166;4.760;2023-12-22T03:24:39;9.50;99.90
27384;DHT22;14851;51.166;4.760;2023-12-22T03:27:05;9.60;99.90
27384;DHT22;14851;51.166;4.760;2023-12-22T03:29:32;9.60;99.90
27384;DHT22;14851;51.166;4.760;2023-12-22T03:31:59;9.60;99.90
27384;DHT22;14851;51.166;4.760;2023-12-22T03:34:25;9.60;99.90
27384;DHT22;14851;51.166;4.760;2023-12-22T03:36:54;9.60;99.90
27384;DHT22;14851;51.166;4.760;2023-12-22T03:39:38;9.50;99.90
27384;DHT22;14851;51.166;4.760;2023-12-22T03:42:07;9.60;99.90
27384;DHT22;14851;51.166;4.760;2023-12-22T03:44:33;9.60;99.90
27384;DHT22;14851;51.166;4.760;2023-12-22T03:46:59;9.50;99.90
27384;DHT22;14851;51.166;4.760;2023-12-22T03:49:31;9.60;99.90
27384;DHT22;14851;51.166;4.760;2023-12-22T03:51:57;9.60;99.90
27384;DHT22;14851;51.166;4.760;2023-12-22T03:54:24;9.60;99.90
27384;DHT22;14851;51.166;4.760;2023-12-22T03:56:53;9.60;99.90
27384;DHT22;14851;51.166;4.760;2023-12-22T03:59:19;9.60;99.90
27384;DHT22;14851;51.166;4.760;2023-12-22T04:01:51;9.60;99.90
27384;DHT22;14851;51.166;4.760;2023-12-22T04:04:21;9.60;99.90
27384;DHT22;14851;51.166;4.760;2023-12-22T04:06:53;9.50;99.90
27384;DHT22;14851;51.166;4.760;2023-12-22T04:09:21;9.50;99.90
27384;DHT22;14851;51.166;4.760;2023-12-22T04:11:48;9.50;99.90
27384;DHT22;14851;51.166;4.760;2023-12-22T04:14:14;9.50;99.90
27384;DHT22;14851;51.166;4.760;2023-12-22T04:16:46;9.50;99.90
27384;DHT22;14851;51.166;4.760;2023-12-22T04:19:13;9.50;99.90
27384;DHT22;14851;51.166;4.760;2023-12-22T04:21:39;9.50;99.90
27384;DHT22;14851;51.166;4.760;2023-12-22T04:24:06;9.50;99.90
27384;DHT22;14851;51.166;4.760;2023-12-22T04:26:36;9.50;99.90
27384;DHT22;14851;51.166;4.760;2023-12-22T04:29:02;9.50;99.90
27384;DHT22;14851;51.166;4.760;2023-12-22T04:31:28;9.50;99.90
27384;DHT22;14851;51.166;4.760;2023-12-22T04:33:54;9.60;99.90
27384;DHT22;14851;51.166;4.760;2023-12-22T04:36:21;9.50;99.90
27384;DHT22;14851;51.166;4.760;2023-12-22T04:38:47;9.50;99.90
27384;DHT22;14851;51.166;4.760;2023-12-22T04:41:13;9.50;99.90
27384;DHT22;14851;51.166;4.760;2023-12-22T04:43:39;9.50;99.90
27384;DHT22;14851;51.166;4.760;2023-12-22T04:46:05;9.50;99.90
27384;DHT22;14851;51.166;4.760;2023-12-22T04:48:31;9.50;99.90
27384;DHT22;14851;51.166;4.760;2023-12-22T04:50:59;9.50;99.90
27384;DHT22;14851;51.166;4.760;2023-12-22T04:53:25;9.50;99.90
27384;DHT22;14851;51.166;4.760;2023-12-22T04:55:51;9.50;99.90
27384;DHT22;14851;51.166;4.760;2023-12-22T04:58:17;9.50;99.90
27384;DHT22;14851;51.166;4.760;2023-12-22T05:00:43;9.50;99.90
27384;DHT22;14851;51.166;4.760;2023-12-22T05:03:12;9.50;99.90
27384;DHT22;14851;51.166;4.760;2023-12-22T05:05:38;9.50;99.90
27384;DHT22;14851;51.166;4.760;2023-12-22T05:08:04;9.50;99.90
27384;DHT22;14851;51.166;4.760;2023-12-22T05:10:30;9.50;99.90
27384;DHT22;14851;51.166;4.760;2023-12-22T05:12:56;9.50;99.90
27384;DHT22;14851;51.166;4.760;2023-12-22T05:15:23;9.50;99.90
27384;DHT22;14851;51.166;4.760;2023-12-22T05:17:49;9.50;99.90
27384;DHT22;14851;51.166;4.760;2023-12-22T05:20:15;9.50;99.90
27384;DHT22;14851;51.166;4.760;2023-12-22T05:22:42;9.40;99.90
27384;DHT22;14851;51.166;4.760;2023-12-22T05:25:09;9.40;99.90
27384;DHT22;14851;51.166;4.760;2023-12-22T05:27:39;9.40;99.90
27384;DHT22;14851;51.166;4.760;2023-12-22T05:30:08;9.40;99.90
27384;DHT22;14851;51.166;4.760;2023-12-22T05:32:34;9.50;99.90
27384;DHT22;14851;51.166;4.760;2023-12-22T05:35:00;9.40;99.90
27384;DHT22;14851;51.166;4.760;2023-12-22T05:37:26;9.50;99.90
27384;DHT22;14851;51.166;4.760;2023-12-22T05:39:55;9.40;99.90
27384;DHT22;14851;51.166;4.760;2023-12-22T05:42:21;9.40;99.90
27384;DHT22;14851;51.166;4.760;2023-12-22T05:44:47;9.40;99.90
27384;DHT22;14851;51.166;4.760;2023-12-22T05:47:16;9.50;99.90
27384;DHT22;14851;51.166;4.760;2023-12-22T05:49:43;9.50;99.90
27384;DHT22;14851;51.166;4.760;2023-12-22T05:52:09;9.40;99.90
27384;DHT22;14851;51.166;4.760;2023-12-22T05:54:37;9.50;99.90
27384;DHT22;14851;51.166;4.760;2023-12-22T05:57:04;9.50;99.90
27384;DHT22;14851;51.166;4.760;2023-12-22T05:59:32;9.50;99.90
27384;DHT22;14851;51.166;4.760;2023-12-22T06:01:59;9.50;99.90
27384;DHT22;14851;51.166;4.760;2023-12-22T06:04:28;9.50;99.90
27384;DHT22;14851;51.166;4.760;2023-12-22T06:06:55;9.50;99.90
27384;DHT22;14851;51.166;4.760;2023-12-22T06:09:21;9.40;99.90
27384;DHT22;14851;51.166;4.760;2023-12-22T06:11:50;9.50;99.90
27384;DHT22;14851;51.166;4.760;2023-12-22T06:14:20;9.50;99.90
27384;DHT22;14851;51.166;4.760;2023-12-22T06:16:46;9.50;99.90
27384;DHT22;14851;51.166;4.760;2023-12-22T06:19:16;9.50;99.90
27384;DHT22;14851;51.166;4.760;2023-12-22T06:21:42;9.50;99.90
27384;DHT22;14851;51.166;4.760;2023-12-22T06:24:14;9.50;99.90
27384;DHT22;14851;51.166;4.760;2023-12-22T06:26:41;9.50;99.90
27384;DHT22;14851;51.166;4.760;2023-12-22T06:29:07;9.50;99.90
27384;DHT22;14851;51.166;4.760;2023-12-22T06:31:37;9.50;99.90
27384;DHT22;14851;51.166;4.760;2023-12-22T06:34:03;9.50;99.90
27384;DHT22;14851;51.166;4.760;2023-12-22T06:36:30;9.50;99.90
27384;DHT22;14851;51.166;4.760;2023-12-22T06:38:57;9.50;99.90
27384;DHT22;14851;51.166;4.760;2023-12-22T06:41:26;9.50;99.90
27384;DHT22;14851;51.166;4.760;2023-12-22T06:43:52;9.50;99.90
27384;DHT22;14851;51.166;4.760;2023-12-22T06:46:20;9.50;99.90
27384;DHT22;14851;51.166;4.760;2023-12-22T06:48:48;9.50;99.90
27384;DHT22;14851;51.166;4.760;2023-12-22T06:51:24;9.50;99.90
27384;DHT22;14851;51.166;4.760;2023-12-22T06:53:57;9.50;99.90
27384;DHT22;14851;51.166;4.760;2023-12-22T06:56:27;9.50;99.90
27384;DHT22;14851;51.166;4.760;2023-12-22T06:58:55;9.50;99.90
27384;DHT22;14851;51.166;4.760;2023-12-22T07:03:54;9.60;99.90
27384;DHT22;14851;51.166;4.760;2023-12-22T07:06:21;9.60;99.90
27384;DHT22;14851;51.166;4.760;2023-12-22T07:11:40;9.60;99.90
27384;DHT22;14851;51.166;4.760;2023-12-22T07:14:07;9.60;99.90
27384;DHT22;14851;51.166;4.760;2023-12-22T07:16:35;9.60;99.90
27384;DHT22;14851;51.166;4.760;2023-12-22T07:19:02;9.60;99.90
27384;DHT22;14851;51.166;4.760;2023-12-22T07:21:28;9.60;99.90
27384;DHT22;14851;51.166;4.760;2023-12-22T07:23:54;9.60;99.90
27384;DHT22;14851;51.166;4.760;2023-12-22T07:26:24;9.60;99.90
27384;DHT22;14851;51.166;4.760;2023-12-22T07:28:54;9.50;99.90
27384;DHT22;14851;51.166;4.760;2023-12-22T07:31:21;9.50;99.90
27384;DHT22;14851;51.166;4.760;2023-12-22T07:33:47;9.50;99.90
27384;DHT22;14851;51.166;4.760;2023-12-22T07:36:14;9.50;99.90
27384;DHT22;14851;51.166;4.760;2023-12-22T07:38:40;9.50;99.90
27384;DHT22;14851;51.166;4.760;2023-12-22T07:41:06;9.40;99.90
27384;DHT22;14851;51.166;4.760;2023-12-22T07:43:33;9.40;99.90
27384;DHT22;14851;51.166;4.760;2023-12-22T07:45:59;9.40;99.90
27384;DHT22;14851;51.166;4.760;2023-12-22T07:48:25;9.40;99.90
27384;DHT22;14851;51.166;4.760;2023-12-22T07:50:51;9.40;99.90
27384;DHT22;14851;51.166;4.760;2023-12-22T07:53:18;9.40;99.90
27384;DHT22;14851;51.166;4.760;2023-12-22T07:55:44;9.40;99.90
27384;DHT22;14851;51.166;4.760;2023-12-22T07:58:13;9.40;99.90
27384;DHT22;14851;51.166;4.760;2023-12-22T08:00:40;9.40;99.90
27384;DHT22;14851;51.166;4.760;2023-12-22T08:03:08;9.30;99.90
27384;DHT22;14851;51.166;4.760;2023-12-22T08:05:35;9.30;99.90
27384;DHT22;14851;51.166;4.760;2023-12-22T08:08:01;9.20;99.90
27384;DHT22;14851;51.166;4.760;2023-12-22T08:10:28;9.30;99.90
27384;DHT22;14851;51.166;4.760;2023-12-22T08:12:54;9.30;99.90
27384;DHT22;14851;51.166;4.760;2023-12-22T08:15:20;9.30;99.90
27384;DHT22;14851;51.166;4.760;2023-12-22T08:17:50;9.20;99.90
27384;DHT22;14851;51.166;4.760;2023-12-22T08:20:18;9.20;99.90
27384;DHT22;14851;51.166;4.760;2023-12-22T08:22:49;9.20;99.90
27384;DHT22;14851;51.166;4.760;2023-12-22T08:25:15;9.20;99.90
27384;DHT22;14851;51.166;4.760;2023-12-22T08:27:43;9.20;99.90
27384;DHT22;14851;51.166;4.760;2023-12-22T08:30:09;9.20;99.90
27384;DHT22;14851;51.166;4.760;2023-12-22T08:32:36;9.30;99.90
27384;DHT22;14851;51.166;4.760;2023-12-22T08:35:03;9.20;99.90
27384;DHT22;14851;51.166;4.760;2023-12-22T08:37:30;9.20;99.90
27384;DHT22;14851;51.166;4.760;2023-12-22T08:39:57;9.20;99.90
27384;DHT22;14851;51.166;4.760;2023-12-22T08:42:26;9.20;99.90
27384;DHT22;14851;51.166;4.760;2023-12-22T08:44:56;9.20;99.90
27384;DHT22;14851;51.166;4.760;2023-12-22T08:47:22;9.20;99.90
27384;DHT22;14851;51.166;4.760;2023-12-22T08:49:49;9.20;99.90
27384;DHT22;14851;51.166;4.760;2023-12-22T08:52:15;9.20;99.90
27384;DHT22;14851;51.166;4.760;2023-12-22T08:54:41;9.20;99.90
27384;DHT22;14851;51.166;4.760;2023-12-22T08:57:07;9.30;99.90
27384;DHT22;14851;51.166;4.760;2023-12-22T08:59:34;9.30;99.90
27384;DHT22;14851;51.166;4.760;2023-12-22T09:02:01;9.30;99.90
27384;DHT22;14851;51.166;4.760;2023-12-22T09:04:27;9.30;99.90
27384;DHT22;14851;51.166;4.760;2023-12-22T09:06:53;9.30;99.90
27384;DHT22;14851;51.166;4.760;2023-12-22T09:09:19;9.40;99.90
27384;DHT22;14851;51.166;4.760;2023-12-22T09:11:47;9.50;99.90
27384;DHT22;14851;51.166;4.760;2023-12-22T09:14:13;9.50;99.90
27384;DHT22;14851;51.166;4.760;2023-12-22T09:16:40;9.60;99.90
27384;DHT22;14851;51.166;4.760;2023-12-22T09:19:06;9.60;99.90
27384;DHT22;14851;51.166;4.760;2023-12-22T09:21:33;9.70;99.90
27384;DHT22;14851;51.166;4.760;2023-12-22T09:23:59;9.70;99.90
27384;DHT22;14851;51.166;4.760;2023-12-22T09:26:25;9.70;99.90
27384;DHT22;14851;51.166;4.760;2023-12-22T09:28:52;9.70;99.90
27384;DHT22;14851;51.166;4.760;2023-12-22T09:31:18;9.70;99.90
27384;DHT22;14851;51.166;4.760;2023-12-22T09:33:44;9.70;99.90
27384;DHT22;14851;51.166;4.760;2023-12-22T09:36:10;9.70;99.90
27384;DHT22;14851;51.166;4.760;2023-12-22T09:38:37;9.80;99.90
27384;DHT22;14851;51.166;4.760;2023-12-22T09:41:04;9.80;99.90
27384;DHT22;14851;51.166;4.760;2023-12-22T09:43:32;9.80;99.90
27384;DHT22;14851;51.166;4.760;2023-12-22T09:46:01;9.90;99.90
27384;DHT22;14851;51.166;4.760;2023-12-22T09:48:29;9.80;99.90
27384;DHT22;14851;51.166;4.760;2023-12-22T09:50:56;9.80;99.90
27384;DHT22;14851;51.166;4.760;2023-12-22T09:53:24;9.80;99.90
27384;DHT22;14851;51.166;4.760;2023-12-22T09:55:51;9.80;99.90
27384;DHT22;14851;51.166;4.760;2023-12-22T09:58:19;9.80;99.90
27384;DHT22;14851;51.166;4.760;2023-12-22T10:00:49;9.80;99.90
27384;DHT22;14851;51.166;4.760;2023-12-22T10:03:16;9.80;99.90
27384;DHT22;14851;51.166;4.760;2023-12-22T10:05:45;9.90;99.90
27384;DHT22;14851;51.166;4.760;2023-12-22T10:08:12;9.90;99.90
27384;DHT22;14851;51.166;4.760;2023-12-22T10:10:40;9.90;99.90
27384;DHT22;14851;51.166;4.760;2023-12-22T10:13:06;9.90;99.90
27384;DHT22;14851;51.166;4.760;2023-12-22T10:15:39;10.00;99.90
27384;DHT22;14851;51.166;4.760;2023-12-22T10:18:09;10.00;99.90
27384;DHT22;14851;51.166;4.760;2023-12-22T10:20:35;10.00;99.90
27384;DHT22;14851;51.166;4.760;2023-12-22T10:23:05;10.00;99.90
27384;DHT22;14851;51.166;4.760;2023-12-22T10:25:32;10.00;99.90
27384;DHT22;14851;51.166;4.760;2023-12-22T10:27:58;10.10;99.90
27384;DHT22;14851;51.166;4.760;2023-12-22T10:30:25;10.10;99.90
27384;DHT22;14851;51.166;4.760;2023-12-22T10:32:52;10.10;99.90
27384;DHT22;14851;51.166;4.760;2023-12-22T10:35:19;10.10;99.90
27384;DHT22;14851;51.166;4.760;2023-12-22T10:37:46;10.10;99.90
27384;DHT22;14851;51.166;4.760;2023-12-22T10:40:13;10.20;99.90
27384;DHT22;14851;51.166;4.760;2023-12-22T10:42:42;10.10;99.90
27384;DHT22;14851;51.166;4.760;2023-12-22T10:45:09;10.10;99.90
27384;DHT22;14851;51.166;4.760;2023-12-22T10:47:35;10.20;99.90
27384;DHT22;14851;51.166;4.760;2023-12-22T10:50:04;10.20;99.90
27384;DHT22;14851;51.166;4.760;2023-12-22T10:52:35;10.20;99.90
27384;DHT22;14851;51.166;4.760;2023-12-22T10:55:02;10.20;99.90
27384;DHT22;14851;51.166;4.760;2023-12-22T10:57:28;10.20;99.90
27384;DHT22;14851;51.166;4.760;2023-12-22T10:59:58;10.30;99.90
27384;DHT22;14851;51.166;4.760;2023-12-22T11:02:27;10.30;99.90
27384;DHT22;14851;51.166;4.760;2023-12-22T11:05:04;10.30;99.90
27384;DHT22;14851;51.166;4.760;2023-12-22T11:07:36;10.30;99.90
27384;DHT22;14851;51.166;4.760;2023-12-22T11:10:05;10.30;99.90
27384;DHT22;14851;51.166;4.760;2023-12-22T11:12:36;10.40;99.90
27384;DHT22;14851;51.166;4.760;2023-12-22T11:15:04;10.40;99.90
27384;DHT22;14851;51.166;4.760;2023-12-22T11:17:33;10.40;99.90
27384;DHT22;14851;51.166;4.760;2023-12-22T11:20:06;10.40;99.90
27384;DHT22;14851;51.166;4.760;2023-12-22T11:22:36;10.50;99.90
27384;DHT22;14851;51.166;4.760;2023-12-22T11:25:04;10.40;99.90
27384;DHT22;14851;51.166;4.760;2023-12-22T11:27:33;10.40;99.90
27384;DHT22;14851;51.166;4.760;2023-12-22T11:30:01;10.50;99.90
27384;DHT22;14851;51.166;4.760;2023-12-22T11:32:29;10.50;99.90
27384;DHT22;14851;51.166;4.760;2023-12-22T11:34:57;10.40;99.90
27384;DHT22;14851;51.166;4.760;2023-12-22T11:37:31;10.40;99.90
27384;DHT22;14851;51.166;4.760;2023-12-22T11:39:58;10.50;99.90
27384;DHT22;14851;51.166;4.760;2023-12-22T11:42:35;10.40;99.90
27384;DHT22;14851;51.166;4.760;2023-12-22T11:45:05;10.40;99.90
27384;DHT22;14851;51.166;4.760;2023-12-22T11:47:31;10.40;99.90
27384;DHT22;14851;51.166;4.760;2023-12-22T11:49:58;10.50;99.90
27384;DHT22;14851;51.166;4.760;2023-12-22T11:52:26;10.50;99.90
27384;DHT22;14851;51.166;4.760;2023-12-22T11:54:56;10.50;99.90
27384;DHT22;14851;51.166;4.760;2023-12-22T11:57:33;10.50;99.90
27384;DHT22;14851;51.166;4.760;2023-12-22T12:00:07;10.60;99.90
27384;DHT22;14851;51.166;4.760;2023-12-22T12:02:40;10.60;99.90
27384;DHT22;14851;51.166;4.760;2023-12-22T12:05:12;10.60;99.90
27384;DHT22;14851;51.166;4.760;2023-12-22T12:07:46;10.60;99.90
27384;DHT22;14851;51.166;4.760;2023-12-22T12:13:11;10.60;99.90
27384;DHT22;14851;51.166;4.760;2023-12-22T12:15:38;10.60;99.90
27384;DHT22;14851;51.166;4.760;2023-12-22T12:18:05;10.70;99.90
27384;DHT22;14851;51.166;4.760;2023-12-22T12:20:34;10.70;99.90
27384;DHT22;14851;51.166;4.760;2023-12-22T12:23:03;10.70;99.90
27384;DHT22;14851;51.166;4.760;2023-12-22T12:25:32;10.70;99.90
27384;DHT22;14851;51.166;4.760;2023-12-22T12:28:06;10.80;99.90
27384;DHT22;14851;51.166;4.760;2023-12-22T12:30:43;10.70;99.90
27384;DHT22;14851;51.166;4.760;2023-12-22T12:33:12;10.70;99.90
27384;DHT22;14851;51.166;4.760;2023-12-22T12:35:41;10.80;99.90
27384;DHT22;14851;51.166;4.760;2023-12-22T12:38:09;10.80;99.90
27384;DHT22;14851;51.166;4.760;2023-12-22T12:40:39;10.80;99.90
27384;DHT22;14851;51.166;4.760;2023-12-22T12:43:07;10.80;99.90
27384;DHT22;14851;51.166;4.760;2023-12-22T12:45:34;10.80;99.90
27384;DHT22;14851;51.166;4.760;2023-12-22T12:48:03;10.80;99.90
27384;DHT22;14851;51.166;4.760;2023-12-22T12:50:30;10.80;99.90
27384;DHT22;14851;51.166;4.760;2023-12-22T12:53:03;10.80;99.90
27384;DHT22;14851;51.166;4.760;2023-12-22T12:55:31;10.80;99.90
27384;DHT22;14851;51.166;4.760;2023-12-22T12:57:58;10.80;99.90
27384;DHT22;14851;51.166;4.760;2023-12-22T13:02:53;10.80;99.90
27384;DHT22;14851;51.166;4.760;2023-12-22T13:05:24;10.80;99.90
27384;DHT22;14851;51.166;4.760;2023-12-22T13:07:52;10.90;99.90
27384;DHT22;14851;51.166;4.760;2023-12-22T13:10:25;10.80;99.90
27384;DHT22;14851;51.166;4.760;2023-12-22T13:12:54;10.80;99.90
27384;DHT22;14851;51.166;4.760;2023-12-22T13:15:21;10.80;99.90
27384;DHT22;14851;51.166;4.760;2023-12-22T13:17:47;10.80;99.90
27384;DHT22;14851;51.166;4.760;2023-12-22T13:20:14;10.90;99.90
27384;DHT22;14851;51.166;4.760;2023-12-22T13:22:40;10.90;99.90
27384;DHT22;14851;51.166;4.760;2023-12-22T13:25:07;10.80;99.90
27384;DHT22;14851;51.166;4.760;2023-12-22T13:27:52;10.80;99.90
27384;DHT22;14851;51.166;4.760;2023-12-22T13:33:07;10.90;99.90
27384;DHT22;14851;51.166;4.760;2023-12-22T13:35:36;10.90;99.90
27384;DHT22;14851;51.166;4.760;2023-12-22T13:38:06;10.90;99.90
27384;DHT22;14851;51.166;4.760;2023-12-22T13:40:33;10.90;99.90
27384;DHT22;14851;51.166;4.760;2023-12-22T13:43:00;10.90;99.90
27384;DHT22;14851;51.166;4.760;2023-12-22T13:45:28;10.90;99.90
27384;DHT22;14851;51.166;4.760;2023-12-22T13:47:56;10.90;99.90
27384;DHT22;14851;51.166;4.760;2023-12-22T13:50:25;10.90;99.90
27384;DHT22;14851;51.166;4.760;2023-12-22T13:52:51;10.90;99.90
27384;DHT22;14851;51.166;4.760;2023-12-22T13:55:20;10.90;99.90
27384;DHT22;14851;51.166;4.760;2023-12-22T13:57:48;10.90;99.90
27384;DHT22;14851;51.166;4.760;2023-12-22T14:02:50;10.90;99.90
27384;DHT22;14851;51.166;4.760;2023-12-22T14:05:20;10.90;99.90
27384;DHT22;14851;51.166;4.760;2023-12-22T14:07:47;10.90;99.90
27384;DHT22;14851;51.166;4.760;2023-12-22T14:10:13;10.90;99.90
27384;DHT22;14851;51.166;4.760;2023-12-22T14:12:40;10.90;99.90
27384;DHT22;14851;51.166;4.760;2023-12-22T14:15:08;10.90;99.90
27384;DHT22;14851;51.166;4.760;2023-12-22T14:17:34;10.90;99.90
27384;DHT22;14851;51.166;4.760;2023-12-22T14:20:01;11.00;99.90
27384;DHT22;14851;51.166;4.760;2023-12-22T14:22:28;11.00;99.90
27384;DHT22;14851;51.166;4.760;2023-12-22T14:24:54;10.90;99.90
27384;DHT22;14851;51.166;4.760;2023-12-22T14:27:26;10.90;99.90
27384;DHT22;14851;51.166;4.760;2023-12-22T14:29:52;11.00;99.90
27384;DHT22;14851;51.166;4.760;2023-12-22T14:32:19;11.00;99.90
27384;DHT22;14851;51.166;4.760;2023-12-22T14:34:45;11.00;99.90
27384;DHT22;14851;51.166;4.760;2023-12-22T14:37:11;11.00;99.90
27384;DHT22;14851;51.166;4.760;2023-12-22T14:39:38;11.00;99.90
27384;DHT22;14851;51.166;4.760;2023-12-22T14:42:05;11.00;99.90
27384;DHT22;14851;51.166;4.760;2023-12-22T14:44:31;11.00;99.90
27384;DHT22;14851;51.166;4.760;2023-12-22T14:46:58;11.00;99.90
27384;DHT22;14851;51.166;4.760;2023-12-22T14:49:27;11.00;99.90
27384;DHT22;14851;51.166;4.760;2023-12-22T14:51:53;11.00;99.90
27384;DHT22;14851;51.166;4.760;2023-12-22T14:54:20;11.00;99.90
27384;DHT22;14851;51.166;4.760;2023-12-22T14:56:48;11.00;99.90
27384;DHT22;14851;51.166;4.760;2023-12-22T14:59:15;11.00;99.90
27384;DHT22;14851;51.166;4.760;2023-12-22T15:01:41;11.00;99.90
27384;DHT22;14851;51.166;4.760;2023-12-22T15:04:07;11.00;99.90
27384;DHT22;14851;51.166;4.760;2023-12-22T15:06:38;11.00;99.90
27384;DHT22;14851;51.166;4.760;2023-12-22T15:09:05;11.10;99.90
27384;DHT22;14851;51.166;4.760;2023-12-22T15:11:31;11.10;99.90
27384;DHT22;14851;51.166;4.760;2023-12-22T15:13:57;11.10;99.90
27384;DHT22;14851;51.166;4.760;2023-12-22T15:16:23;11.10;99.90
27384;DHT22;14851;51.166;4.760;2023-12-22T15:18:50;11.10;99.90
27384;DHT22;14851;51.166;4.760;2023-12-22T15:21:22;11.10;99.90
27384;DHT22;14851;51.166;4.760;2023-12-22T15:23:50;11.10;99.90
27384;DHT22;14851;51.166;4.760;2023-12-22T15:26:23;11.10;99.90
27384;DHT22;14851;51.166;4.760;2023-12-22T15:28:52;11.10;99.90
27384;DHT22;14851;51.166;4.760;2023-12-22T15:31:18;11.00;99.90
27384;DHT22;14851;51.166;4.760;2023-12-22T15:33:44;11.00;99.90
27384;DHT22;14851;51.166;4.760;2023-12-22T15:36:21;11.00;99.90
27384;DHT22;14851;51.166;4.760;2023-12-22T15:38:51;11.00;99.90
27384;DHT22;14851;51.166;4.760;2023-12-22T15:41:17;11.00;99.90
27384;DHT22;14851;51.166;4.760;2023-12-22T15:43:46;11.00;99.90
27384;DHT22;14851;51.166;4.760;2023-12-22T15:46:12;11.00;99.90
27384;DHT22;14851;51.166;4.760;2023-12-22T15:48:38;10.90;99.90
27384;DHT22;14851;51.166;4.760;2023-12-22T15:51:09;11.00;99.90
27384;DHT22;14851;51.166;4.760;2023-12-22T15:53:39;10.90;99.90
27384;DHT22;14851;51.166;4.760;2023-12-22T15:56:08;10.90;99.90
27384;DHT22;14851;51.166;4.760;2023-12-22T15:58:36;10.80;99.90